Time;durP1;ratioP1;P1;durP2;ratioP2;P2;SDS_P1;SDS_P2;PMS_P1;PMS_P2;Temp;Humidity;BMP_temperature;BMP_pressure;BME280_temperature;BME280_humidity;BME280_pressure;Samples;Min_cycle;Max_cycle;Signal;HPM_P1;HPM_P2
2021/04/03 00:00:14;;;;;;;16.33;8.77;;;307.30;2304.00;;;;;;5095881;28;20056;-71
2021/04/03 00:02:40;;;;;;;13.07;8.45;;;307.20;2304.00;;;;;;5094097;28;20026;-71
2021/04/03 00:05:09;;;;;;;14.75;7.93;;;307.20;2304.00;;;;;;5096157;28;20024;-71
2021/04/03 00:07:35;;;;;;;;;;;282.50;2278.40;;;;;;5095626;28;20055;-71
2021/04/03 00:10:05;;;;;;;19.08;9.07;;;282.50;2278.40;;;;;;5099466;28;20299;-71
2021/04/03 00:12:31;;;;;;;17.30;8.90;;;282.50;2278.40;;;;;;5099900;28;20131;-71
2021/04/03 00:14:57;;;;;;;12.25;8.38;;;282.40;2278.40;;;;;;5099938;28;20458;-71
2021/04/03 00:17:22;;;;;;;13.40;8.65;;;282.30;2278.40;;;;;;5099502;28;20028;-71
2021/04/03 00:19:54;;;;;;;12.35;8.77;;;282.30;2278.40;;;;;;5099480;28;20059;-71
2021/04/03 00:22:20;;;;;;;14.93;8.23;;;282.30;2278.40;;;;;;5097886;28;20020;-72
2021/04/03 00:24:46;;;;;;;16.77;9.30;;;282.40;2278.40;;;;;;5099058;28;20016;-71
2021/04/03 00:27:12;;;;;;;12.85;8.23;;;282.30;2278.40;;;;;;5099601;28;20418;-72
2021/04/03 00:29:38;;;;;;;17.73;8.68;;;282.10;2278.40;;;;;;5099397;28;20024;-72
2021/04/03 00:32:05;;;;;;;13.52;9.00;;;282.00;2278.40;;;;;;5098919;28;20102;-72
2021/04/03 00:34:31;;;;;;;16.75;8.77;;;282.00;2278.40;;;;;;5099480;28;20410;-72
2021/04/03 00:36:57;;;;;;;13.93;8.30;;;282.00;2278.40;;;;;;5099341;28;20036;-72
2021/04/03 00:39:23;;;;;;;17.10;9.23;;;282.00;2278.40;;;;;;5098276;28;20016;-71
2021/04/03 00:41:49;;;;;;;15.25;8.80;;;281.90;2278.40;;;;;;5099317;28;20032;-71
2021/04/03 00:44:15;;;;;;;16.02;8.20;;;282.10;2278.40;;;;;;5099373;28;20326;-73
2021/04/03 00:46:40;;;;;;;14.45;8.90;;;282.00;2278.40;;;;;;5098990;28;20028;-72
2021/04/03 00:49:06;;;;;;;15.05;7.70;;;282.10;2278.40;;;;;;5098711;28;20027;-72
2021/04/03 00:51:33;;;;;;;13.73;7.95;;;282.10;2278.40;;;;;;5098605;28;20024;-71
2021/04/03 00:54:00;;;;;;;14.13;8.18;;;282.10;2278.40;;;;;;5098826;28;20108;-71
2021/04/03 00:56:26;;;;;;;19.52;8.40;;;282.10;2278.40;;;;;;5098433;28;20411;-72
2021/04/03 00:58:54;;;;;;;17.48;9.30;;;282.10;2278.40;;;;;;5098151;28;20094;-70
2021/04/03 01:01:20;;;;;;;12.03;8.53;;;282.10;2278.40;;;;;;5095059;28;20032;-71
2021/04/03 01:03:46;;;;;;;14.98;7.30;;;282.10;2278.40;;;;;;5097123;28;20028;-71
2021/04/03 01:06:12;;;;;;;17.83;8.25;;;282.00;2278.40;;;;;;5096490;28;20701;-70
2021/04/03 01:08:38;;;;;;;13.40;8.20;;;282.10;2278.40;;;;;;5097021;28;20027;-71
2021/04/03 01:11:05;;;;;;;15.15;7.60;;;282.00;2278.40;;;;;;5095897;28;20028;-71
2021/04/03 01:13:50;;;;;;;15.23;8.48;;;282.10;2278.40;;;;;;5096103;28;20368;-71
2021/04/03 01:16:19;;;;;;;13.50;8.55;;;281.90;2278.40;;;;;;5095099;28;20118;-70
2021/04/03 01:18:57;;;;;;;14.80;8.98;;;281.90;2278.40;;;;;;5092545;28;20024;-70
2021/04/03 01:21:39;;;;;;;16.40;8.07;;;281.80;2278.40;;;;;;5095884;28;20023;-70
2021/04/03 01:24:22;;;;;;;13.88;8.23;;;281.80;2278.40;;;;;;5093772;28;20028;-71
2021/04/03 01:27:06;;;;;;;18.00;8.40;;;281.70;2278.40;;;;;;5093432;28;20470;-70
2021/04/03 01:30:06;;;;;;;11.40;8.50;;;281.70;2278.40;;;;;;5094383;28;20103;-70
2021/04/03 01:32:40;;;;;;;15.48;7.75;;;281.60;2278.40;;;;;;5080479;28;20048;-70
2021/04/03 01:35:09;;;;;;;14.40;8.35;;;281.70;2278.40;;;;;;5093984;28;20051;-72
2021/04/03 01:37:43;;;;;;;14.00;7.80;;;281.60;2278.40;;;;;;5092151;28;20024;-71
2021/04/03 01:40:13;;;;;;;16.83;7.85;;;281.70;2278.40;;;;;;5097738;28;20035;-71
2021/04/03 01:42:39;;;;;;;14.43;7.97;;;281.60;2278.40;;;;;;5098666;28;20020;-71
2021/04/03 01:45:07;;;;;;;17.52;8.40;;;281.60;2278.40;;;;;;5097467;28;20031;-71
2021/04/03 01:47:36;;;;;;;14.18;8.30;;;281.70;2278.40;;;;;;5097405;28;20339;-70
2021/04/03 01:50:03;;;;;;;15.05;8.35;;;281.60;2278.40;;;;;;5096573;28;20028;-70
2021/04/03 01:52:33;;;;;;;11.95;8.00;;;281.60;2278.40;;;;;;5096681;28;20073;-71
2021/04/03 01:55:08;;;;;;;17.90;8.82;;;281.70;2278.40;;;;;;5095808;28;20086;-70
2021/04/03 01:57:35;;;;;;;15.27;8.57;;;281.60;2278.40;;;;;;5097248;28;20032;-69
2021/04/03 02:00:06;;;;;;;12.35;8.20;;;281.60;2278.40;;;;;;5096949;28;20024;-71
2021/04/03 02:02:33;;;;;;;12.93;8.25;;;281.70;2278.40;;;;;;5096650;28;20020;-70
2021/04/03 02:04:59;;;;;;;13.68;7.63;;;281.80;2278.40;;;;;;5096171;28;20028;-70
2021/04/03 02:07:26;;;;;;;12.18;7.90;;;281.80;2278.40;;;;;;5097648;28;20016;-71
2021/04/03 02:09:54;;;;;;;14.30;7.20;;;281.80;2278.40;;;;;;5098168;28;20024;-71
2021/04/03 02:12:21;;;;;;;12.30;7.72;;;281.80;2278.40;;;;;;5098045;28;20086;-70
2021/04/03 02:14:49;;;;;;;14.23;7.57;;;281.90;2278.40;;;;;;5097760;28;20028;-70
2021/04/03 02:17:19;;;;;;;12.45;7.50;;;281.90;2278.40;;;;;;5098023;28;20028;-70
2021/04/03 02:19:45;;;;;;;13.65;7.38;;;281.90;2278.40;;;;;;5098000;28;20383;-71
2021/04/03 02:22:14;;;;;;;9.27;6.75;;;282.00;2278.40;;;;;;5097692;28;20055;-71
2021/04/03 02:24:42;;;;;;;13.20;7.15;;;281.90;2278.40;;;;;;5097912;28;20023;-71
2021/04/03 02:27:08;;;;;;;13.40;7.72;;;281.90;2278.40;;;;;;5097294;28;20341;-70
2021/04/03 02:29:33;;;;;;;15.75;8.18;;;281.90;2278.40;;;;;;5097434;28;20107;-70
2021/04/03 02:31:59;;;;;;;18.25;7.68;;;282.00;2278.40;;;;;;5097845;28;20109;-71
2021/04/03 02:34:26;;;;;;;12.85;7.28;;;282.10;2278.40;;;;;;5097832;28;20419;-70
2021/04/03 02:36:51;;;;;;;14.65;7.22;;;282.30;2278.40;;;;;;5097292;28;20031;-71
2021/04/03 02:39:17;;;;;;;12.73;7.45;;;282.40;2278.40;;;;;;5097861;28;20020;-71
2021/04/03 02:42:05;;;;;;;13.35;6.70;;;282.40;2278.40;;;;;;5097639;28;20100;-71
2021/04/03 02:44:38;;;;;;;13.75;7.38;;;282.50;2278.40;;;;;;5097762;28;20028;-71
2021/04/03 02:47:21;;;;;;;17.20;7.78;;;282.50;2278.40;;;;;;5097890;28;20030;-71
2021/04/03 02:50:07;;;;;;;10.43;7.57;;;282.50;2278.40;;;;;;5097875;28;20035;-71
2021/04/03 02:52:36;;;;;;;14.25;7.50;;;282.40;2278.40;;;;;;5097207;28;20032;-71
2021/04/03 02:55:04;;;;;;;17.73;8.10;;;282.50;2278.40;;;;;;5097097;28;20028;-71
2021/04/03 02:57:31;;;;;;;13.93;7.35;;;307.20;2304.00;;;;;;5097124;28;20089;-71
2021/04/03 02:59:59;;;;;;;16.92;6.88;;;307.20;2304.00;;;;;;5097449;28;20403;-71
2021/04/03 03:02:26;;;;;;;11.73;7.40;;;307.20;2304.00;;;;;;5097114;28;20028;-70
2021/04/03 03:04:54;;;;;;;12.23;7.50;;;307.20;2304.00;;;;;;5097098;28;20024;-71
2021/04/03 03:07:24;;;;;;;15.65;7.55;;;307.30;2304.00;;;;;;5097588;28;20062;-71
2021/04/03 03:09:51;;;;;;;9.60;6.80;;;307.50;2304.00;;;;;;5097507;28;20035;-71
2021/04/03 03:12:21;;;;;;;12.55;7.20;;;307.40;2304.00;;;;;;5096714;28;20107;-71
2021/04/03 03:14:48;;;;;;;15.15;7.95;;;307.40;2304.00;;;;;;5097253;28;20035;-71
2021/04/03 03:17:15;;;;;;;13.70;7.15;;;307.50;2304.00;;;;;;5097397;28;20051;-71
2021/04/03 03:19:41;;;;;;;12.95;7.82;;;307.60;2304.00;;;;;;5096663;28;20024;-71
2021/04/03 03:22:08;;;;;;;13.57;7.35;;;307.60;2304.00;;;;;;5097355;28;20031;-70
2021/04/03 03:24:35;;;;;;;12.50;7.40;;;307.70;2304.00;;;;;;5097132;28;20066;-71
2021/04/03 03:27:02;;;;;;;10.77;7.28;;;307.70;2304.00;;;;;;5096876;28;20052;-71
2021/04/03 03:29:30;;;;;;;13.75;7.63;;;307.80;2304.00;;;;;;5096836;28;20030;-70
2021/04/03 03:31:56;;;;;;;10.80;7.95;;;307.80;2304.00;;;;;;5096556;28;20058;-71
2021/04/03 03:34:22;;;;;;;13.05;7.88;;;307.80;2304.00;;;;;;5096284;28;20110;-70
2021/04/03 03:36:48;;;;;;;10.93;7.30;;;307.80;2304.00;;;;;;5096997;28;20028;-71
2021/04/03 03:39:15;;;;;;;12.82;7.35;;;307.80;2304.00;;;;;;5097200;28;20028;-71
2021/04/03 03:41:42;;;;;;;8.63;6.50;;;307.80;2304.00;;;;;;5096840;28;20096;-70
2021/04/03 03:44:09;;;;;;;13.27;7.57;;;307.80;2304.00;;;;;;5082471;28;20031;-71
2021/04/03 03:46:35;;;;;;;13.45;7.13;;;307.90;2304.00;;;;;;5100711;28;20020;-71
2021/04/03 03:49:02;;;;;;;12.15;6.38;;;307.90;2304.00;;;;;;5100873;28;20035;-70
2021/04/03 03:51:28;;;;;;;8.85;5.97;;;307.80;2304.00;;;;;;5101107;28;20126;-71
2021/04/03 03:53:55;;;;;;;12.23;7.15;;;307.80;2304.00;;;;;;5099428;28;20024;-71
2021/04/03 03:56:20;;;;;;;9.55;6.93;;;307.80;2304.00;;;;;;5099435;28;20346;-71
2021/04/03 03:58:47;;;;;;;14.57;6.85;;;307.70;2304.00;;;;;;5099973;28;20024;-71
2021/04/03 04:01:12;;;;;;;10.57;6.78;;;307.70;2304.00;;;;;;5099749;28;20433;-70
2021/04/03 04:03:38;;;;;;;12.63;6.40;;;307.80;2304.00;;;;;;5100317;28;20036;-71
2021/04/03 04:06:05;;;;;;;13.98;6.85;;;307.90;2304.00;;;;;;5100596;28;20326;-70
2021/04/03 04:08:31;;;;;;;12.40;6.28;;;307.90;2304.00;;;;;;5100071;28;20107;-70
2021/04/03 04:10:57;;;;;;;10.75;6.53;;;308.00;2304.00;;;;;;5100756;28;20073;-70
2021/04/03 04:13:23;;;;;;;15.27;7.07;;;308.00;2304.00;;;;;;5100742;28;20307;-71
2021/04/03 04:15:51;;;;;;;12.57;7.22;;;308.00;2304.00;;;;;;5098982;28;20077;-70
2021/04/03 04:18:17;;;;;;;9.80;6.85;;;308.00;2304.00;;;;;;5099976;28;20016;-71
2021/04/03 04:20:43;;;;;;;16.25;6.82;;;307.90;2304.00;;;;;;5099627;28;20023;-71
2021/04/03 04:23:12;;;;;;;10.23;7.40;;;308.00;2304.00;;;;;;5099528;28;20414;-71
2021/04/03 04:25:37;;;;;;;;;;;308.00;2304.00;;;;;;5099995;28;20048;-71
2021/04/03 04:28:03;;;;;;;11.18;7.13;;;307.90;2304.00;;;;;;5099799;28;19911;-72
2021/04/03 04:30:29;;;;;;;14.77;7.28;;;307.80;2304.00;;;;;;5099371;28;20027;-70
2021/04/03 04:32:55;;;;;;;13.65;8.25;;;307.80;2304.00;;;;;;5099662;28;20048;-71
2021/04/03 04:35:20;;;;;;;14.40;7.85;;;307.80;2304.00;;;;;;5099539;28;20020;-70
2021/04/03 04:37:46;;;;;;;17.38;7.43;;;307.80;2304.00;;;;;;5099137;28;20020;-71
2021/04/03 04:40:14;;;;;;;12.70;7.50;;;307.60;2304.00;;;;;;5099525;28;20511;-71
2021/04/03 04:42:41;;;;;;;10.98;7.22;;;307.60;2304.00;;;;;;5098936;28;20027;-71
2021/04/03 04:45:09;;;;;;;15.13;7.68;;;307.70;2304.00;;;;;;5099075;28;20038;-71
2021/04/03 04:47:35;;;;;;;14.20;7.60;;;307.80;2304.00;;;;;;5099185;28;20383;-71
2021/04/03 04:50:01;;;;;;;26.35;8.70;;;307.60;2304.00;;;;;;5098746;28;20118;-70
2021/04/03 04:52:28;;;;;;;15.90;11.35;;;307.80;2304.00;;;;;;5099179;28;20024;-71
2021/04/03 04:54:54;;;;;;;19.38;9.43;;;307.80;2304.00;;;;;;5098687;28;20016;-71
2021/04/03 04:57:20;;;;;;;14.05;6.90;;;307.70;2304.00;;;;;;5098560;28;20039;-71
2021/04/03 04:59:46;;;;;;;11.05;7.18;;;307.70;2304.00;;;;;;5098756;28;20058;-71
2021/04/03 05:02:11;;;;;;;12.18;7.65;;;307.60;2304.00;;;;;;5098165;28;20316;-71
2021/04/03 05:04:38;;;;;;;14.50;8.05;;;307.80;2304.00;;;;;;5098275;28;20043;-73
2021/04/03 05:07:04;;;;;;;10.55;7.45;;;307.70;2304.00;;;;;;5098609;28;20054;-71
2021/04/03 05:09:30;;;;;;;13.52;8.10;;;307.70;2304.00;;;;;;5098878;28;20291;-72
2021/04/03 05:11:55;;;;;;;11.95;7.82;;;307.70;2304.00;;;;;;5098244;28;20076;-71
2021/04/03 05:14:21;;;;;;;19.60;13.85;;;307.70;2304.00;;;;;;5098768;28;20042;-73
2021/04/03 05:16:47;;;;;;;31.10;21.58;;;307.50;2304.00;;;;;;5098043;28;20063;-73
2021/04/03 05:19:13;;;;;;;40.83;27.42;;;282.50;2278.40;;;;;;5098108;28;20023;-73
2021/04/03 05:21:38;;;;;;;45.60;28.75;;;281.90;2278.40;;;;;;5079937;28;20426;-72
2021/04/03 05:24:05;;;;;;;48.72;27.13;;;256.90;2252.80;;;;;;5098253;28;20020;-73
2021/04/03 05:26:30;;;;;;;42.13;26.30;;;256.80;2252.80;;;;;;5079835;28;20423;-70
2021/04/03 05:28:56;;;;;;;44.00;28.27;;;256.70;2252.80;;;;;;5096035;28;20031;-73
2021/04/03 05:31:22;;;;;;;46.22;28.52;;;256.60;2252.80;;;;;;5096318;28;20024;-72
2021/04/03 05:33:49;;;;;;;43.22;27.33;;;256.40;2252.80;;;;;;5096592;28;20388;-72
2021/04/03 05:36:15;;;;;;;42.80;26.60;;;256.10;2252.80;;;;;;5096823;28;20081;-72
2021/04/03 05:38:41;;;;;;;39.42;24.20;;;231.30;2252.80;;;;;;5096234;28;20031;-72
2021/04/03 05:41:07;;;;;;;43.75;25.50;;;231.10;2252.80;;;;;;5096030;28;20024;-72
2021/04/03 05:43:34;;;;;;;38.42;23.15;;;231.00;2252.80;;;;;;5096374;28;20327;-72
2021/04/03 05:46:02;;;;;;;37.83;21.13;;;231.00;2252.80;;;;;;5096011;28;20342;-72
2021/04/03 05:48:28;;;;;;;44.38;24.60;;;230.90;2252.80;;;;;;5096498;28;20097;-72
2021/04/03 05:50:57;;;;;;;42.20;23.75;;;230.90;2252.80;;;;;;5095872;28;20107;-71
2021/04/03 05:53:24;;;;;;;43.17;24.02;;;230.80;2252.80;;;;;;5095317;28;20041;-73
2021/04/03 05:55:58;;;;;;;42.50;24.55;;;230.90;2252.80;;;;;;5094873;28;20421;-71
2021/04/03 05:58:24;;;;;;;43.78;23.95;;;230.80;2252.80;;;;;;5092956;28;20470;-71
2021/04/03 06:00:53;;;;;;;41.88;23.00;;;230.90;2252.80;;;;;;5095103;28;20020;-72
2021/04/03 06:03:20;;;;;;;40.00;22.10;;;231.00;2252.80;;;;;;5095334;28;20418;-71
2021/04/03 06:05:50;;;;;;;38.72;22.40;;;231.00;2252.80;;;;;;5092143;28;20093;-71
2021/04/03 06:08:16;;;;;;;41.50;22.55;;;231.00;2252.80;;;;;;5095242;28;20031;-72
2021/04/03 06:10:42;;;;;;;38.42;20.85;;;231.00;2252.80;;;;;;5095589;28;20028;-71
2021/04/03 06:13:19;;;;;;;42.47;23.08;;;231.00;2252.80;;;;;;5096360;28;20023;-71
2021/04/03 06:15:45;;;;;;;37.45;22.08;;;231.10;2252.80;;;;;;5095879;28;20055;-71
2021/04/03 06:18:12;;;;;;;39.90;22.50;;;231.10;2252.80;;;;;;5095302;28;20054;-72
2021/04/03 06:20:42;;;;;;;38.15;22.33;;;231.10;2252.80;;;;;;5095712;28;20031;-71
2021/04/03 06:23:10;;;;;;;39.13;23.42;;;231.10;2252.80;;;;;;5095940;28;20406;-71
2021/04/03 06:25:56;;;;;;;39.28;22.95;;;231.00;2252.80;;;;;;5095350;28;20446;-71
2021/04/03 06:28:29;;;;;;;37.08;21.95;;;231.00;2252.80;;;;;;5094801;28;20084;-71
2021/04/03 06:30:58;;;;;;;37.78;22.65;;;231.10;2252.80;;;;;;5094822;28;20358;-72
2021/04/03 06:33:24;;;;;;;41.85;23.77;;;231.00;2252.80;;;;;;5095673;28;20462;-72
2021/04/03 06:36:09;;;;;;;38.80;21.48;;;231.00;2252.80;;;;;;5095017;28;20032;-72
2021/04/03 06:38:36;;;;;;;38.60;22.77;;;231.10;2252.80;;;;;;5095583;28;20118;-71
2021/04/03 06:41:25;;;;;;;40.63;22.10;;;231.00;2252.80;;;;;;5095235;28;20052;-71
2021/04/03 06:44:08;;;;;;;40.28;23.35;;;231.00;2252.80;;;;;;5095476;28;20020;-72
2021/04/03 06:46:36;;;;;;;43.65;25.20;;;231.10;2252.80;;;;;;5095193;28;20039;-71
2021/04/03 06:49:02;;;;;;;42.83;26.00;;;231.30;2252.80;;;;;;5094991;28;20028;-74
2021/04/03 06:51:29;;;;;;;42.95;26.75;;;231.30;2252.80;;;;;;5094859;28;20085;-72
2021/04/03 06:53:57;;;;;;;46.63;27.63;;;231.30;2252.80;;;;;;5095321;28;20030;-73
2021/04/03 06:56:24;;;;;;;42.47;26.80;;;231.30;2252.80;;;;;;5094967;28;20023;-71
2021/04/03 06:59:05;;;;;;;44.83;27.90;;;231.30;2252.80;;;;;;5095108;28;20028;-73
2021/04/03 07:01:50;;;;;;;43.92;25.63;;;231.20;2252.80;;;;;;5095203;28;20044;-71
2021/04/03 07:04:39;;;;;;;41.35;25.00;;;231.10;2252.80;;;;;;5090793;28;20059;-72
2021/04/03 07:07:07;;;;;;;43.30;26.67;;;230.90;2252.80;;;;;;5080964;28;20502;-73
2021/04/03 07:09:34;;;;;;;47.40;27.77;;;230.90;2252.80;;;;;;5092310;28;20066;-72
2021/04/03 07:12:01;;;;;;;46.63;28.70;;;230.80;2252.80;;;;;;5089971;28;20478;-72
2021/04/03 07:14:30;;;;;;;48.17;29.77;;;230.90;2252.80;;;;;;5095992;28;20024;-72
2021/04/03 07:16:58;;;;;;;51.92;29.90;;;231.00;2252.80;;;;;;5096652;28;20110;-71
2021/04/03 07:19:27;;;;;;;48.05;28.40;;;231.00;2252.80;;;;;;5101156;28;20046;-72
2021/04/03 07:21:54;;;;;;;54.95;31.08;;;231.00;2252.80;;;;;;5100950;28;20040;-72
2021/04/03 07:24:21;;;;;;;52.17;30.00;;;231.00;2252.80;;;;;;5100074;28;20094;-72
2021/04/03 07:26:49;;;;;;;49.65;29.40;;;230.90;2252.80;;;;;;5100158;28;20028;-72
2021/04/03 07:29:40;;;;;;;49.55;28.20;;;230.90;2252.80;;;;;;5100621;28;20024;-71
2021/04/03 07:32:06;;;;;;;45.72;28.35;;;231.00;2252.80;;;;;;5098807;28;20051;-73
2021/04/03 07:34:42;;;;;;;46.65;28.10;;;231.00;2252.80;;;;;;5100437;28;20020;-71
2021/04/03 07:37:11;;;;;;;49.20;29.17;;;231.00;2252.80;;;;;;5100766;28;20422;-72
2021/04/03 07:39:37;;;;;;;;;;;230.90;2252.80;;;;;;5100292;28;20024;-72
2021/04/03 07:42:04;;;;;;;47.38;27.60;;;230.70;2252.80;;;;;;5100350;28;19903;-72
2021/04/03 07:44:38;;;;;;;46.45;27.50;;;230.70;2252.80;;;;;;5099792;28;20334;-72
2021/04/03 07:47:20;;;;;;;48.22;26.58;;;230.70;2252.80;;;;;;5100368;28;20338;-72
2021/04/03 07:49:46;;;;;;;50.25;28.25;;;230.70;2252.80;;;;;;5098655;28;20019;-71
2021/04/03 07:52:13;;;;;;;50.15;29.83;;;230.70;2252.80;;;;;;5099972;28;20106;-71
2021/04/03 07:54:39;;;;;;;50.75;28.65;;;230.80;2252.80;;;;;;5100541;28;20024;-72
2021/04/03 07:57:11;;;;;;;48.45;29.15;;;230.90;2252.80;;;;;;5100752;28;20415;-71
2021/04/03 07:59:43;;;;;;;48.63;28.55;;;230.90;2252.80;;;;;;5100452;28;20088;-72
2021/04/03 08:02:14;;;;;;;50.83;28.25;;;230.90;2252.80;;;;;;5100602;28;20036;-71
2021/04/03 08:04:39;;;;;;;48.97;27.33;;;230.90;2252.80;;;;;;5100920;28;20070;-72
2021/04/03 08:07:05;;;;;;;46.65;28.13;;;231.00;2252.80;;;;;;5100466;28;20032;-72
2021/04/03 08:09:33;;;;;;;48.72;27.88;;;231.00;2252.80;;;;;;5100816;28;20025;-72
2021/04/03 08:12:00;;;;;;;44.10;26.55;;;231.00;2252.80;;;;;;5100840;28;20344;-72
2021/04/03 08:14:31;;;;;;;45.47;25.05;;;231.00;2252.80;;;;;;5099642;28;20069;-72
2021/04/03 08:16:58;;;;;;;42.50;26.63;;;231.00;2252.80;;;;;;5100322;28;20089;-72
2021/04/03 08:19:32;;;;;;;43.88;25.95;;;231.00;2252.80;;;;;;5100586;28;20031;-72
2021/04/03 08:21:58;;;;;;;43.33;25.20;;;231.00;2252.80;;;;;;5100413;28;20020;-72
2021/04/03 08:24:24;;;;;;;37.83;24.45;;;230.90;2252.80;;;;;;5100559;28;20028;-72
2021/04/03 08:26:52;;;;;;;41.22;24.08;;;230.80;2252.80;;;;;;5100158;28;20334;-72
2021/04/03 08:29:20;;;;;;;38.88;23.92;;;230.70;2252.80;;;;;;5099127;28;20043;-72
2021/04/03 08:31:50;;;;;;;35.75;21.50;;;230.60;2252.80;;;;;;5099974;28;20050;-73
2021/04/03 08:34:16;;;;;;;37.90;20.58;;;230.50;2252.80;;;;;;5099699;28;20419;-72
2021/04/03 08:36:42;;;;;;;36.15;22.23;;;230.40;2252.80;;;;;;5099424;28;20069;-72
2021/04/03 08:39:10;;;;;;;36.58;18.52;;;205.70;2252.80;;;;;;5099686;28;20027;-71
2021/04/03 08:41:39;;;;;;;35.20;20.20;;;205.50;2252.80;;;;;;5099958;28;20065;-72
2021/04/03 08:44:15;;;;;;;39.33;21.90;;;205.40;2252.80;;;;;;5099908;28;20035;-71
2021/04/03 08:46:42;;;;;;;39.20;21.73;;;205.40;2252.80;;;;;;5099718;28;20345;-71
2021/04/03 08:49:08;;;;;;;38.05;21.13;;;205.30;2252.80;;;;;;5099002;28;20312;-71
2021/04/03 08:51:35;;;;;;;40.60;21.42;;;205.40;2252.80;;;;;;5099736;28;20026;-71
2021/04/03 08:54:02;;;;;;;38.17;21.27;;;205.40;2252.80;;;;;;5099407;28;20024;-71
2021/04/03 08:56:35;;;;;;;33.63;20.10;;;205.50;2252.80;;;;;;5099432;28;20139;-71
2021/04/03 08:59:06;;;;;;;36.70;20.45;;;205.50;2252.80;;;;;;5099565;28;20139;-71
2021/04/03 09:01:35;;;;;;;33.42;19.35;;;205.60;2252.80;;;;;;5099361;28;20031;-72
2021/04/03 09:04:07;;;;;;;34.63;21.80;;;205.70;2252.80;;;;;;5099541;28;20031;-71
2021/04/03 09:06:54;;;;;;;33.15;20.05;;;205.70;2252.80;;;;;;5081499;28;20043;-71
2021/04/03 09:09:21;;;;;;;29.30;18.63;;;205.60;2252.80;;;;;;5098926;28;20024;-72
2021/04/03 09:12:02;;;;;;;32.88;20.40;;;205.60;2252.80;;;;;;5099366;28;20422;-71
2021/04/03 09:14:38;;;;;;;34.70;20.50;;;205.60;2252.80;;;;;;5099633;28;20051;-71
2021/04/03 09:17:17;;;;;;;29.40;18.60;;;205.50;2252.80;;;;;;5098766;28;20073;-71
2021/04/03 09:19:43;;;;;;;24.48;16.33;;;205.40;2252.80;;;;;;5098673;28;20028;-71
2021/04/03 09:22:14;;;;;;;28.60;16.55;;;205.40;2252.80;;;;;;5098041;28;20024;-71
2021/04/03 09:24:42;;;;;;;23.48;15.15;;;205.30;2252.80;;;;;;5096399;28;20016;-70
2021/04/03 09:27:12;;;;;;;26.27;16.88;;;205.20;2252.80;;;;;;5095520;28;20068;-70
2021/04/03 09:29:39;;;;;;;25.73;16.58;;;205.20;2252.80;;;;;;5098117;28;20039;-68
2021/04/03 09:32:06;;;;;;;22.38;14.57;;;205.20;2252.80;;;;;;5082823;28;20052;-69
2021/04/03 09:34:33;;;;;;;24.40;15.40;;;205.10;2252.80;;;;;;5097693;28;20035;-68
2021/04/03 09:37:17;;;;;;;27.50;17.05;;;204.80;2252.80;;;;;;5096992;28;20048;-70
2021/04/03 09:39:56;;;;;;;29.92;17.48;;;204.80;2252.80;;;;;;5094727;28;20065;-69
2021/04/03 09:42:29;;;;;;;25.02;15.68;;;204.80;2252.80;;;;;;5096507;28;20019;-68
2021/04/03 09:44:58;;;;;;;23.58;14.27;;;204.90;2252.80;;;;;;5097461;28;20177;-69
2021/04/03 09:47:26;;;;;;;22.90;13.15;;;204.90;2252.80;;;;;;5095742;28;20401;-68
2021/04/03 09:49:52;;;;;;;22.67;13.20;;;205.00;2252.80;;;;;;5097640;28;20020;-67
2021/04/03 09:52:19;;;;;;;20.73;13.70;;;205.20;2252.80;;;;;;5097566;28;20024;-69
2021/04/03 09:54:46;;;;;;;23.52;14.60;;;205.50;2252.80;;;;;;5094840;28;20020;-67
2021/04/03 09:57:14;;;;;;;21.95;14.57;;;205.70;2252.80;;;;;;5096374;28;20043;-69
2021/04/03 09:59:41;;;;;;;20.80;13.32;;;205.60;2252.80;;;;;;5095421;28;20327;-67
2021/04/03 10:02:07;;;;;;;21.67;13.45;;;205.50;2252.80;;;;;;5095737;28;20023;-69
2021/04/03 10:04:33;;;;;;;20.23;13.15;;;205.50;2252.80;;;;;;5095736;28;20032;-68
2021/04/03 10:07:00;;;;;;;22.65;13.77;;;205.60;2252.80;;;;;;5095495;28;20049;-68
2021/04/03 10:09:26;;;;;;;22.77;14.50;;;205.70;2252.80;;;;;;5095980;28;20518;-68
2021/04/03 10:11:57;;;;;;;20.05;13.00;;;230.50;2252.80;;;;;;5096101;28;20035;-69
2021/04/03 10:14:23;;;;;;;22.70;14.63;;;230.70;2252.80;;;;;;5095813;28;20031;-67
2021/04/03 10:16:49;;;;;;;23.85;14.20;;;231.00;2252.80;;;;;;5095753;28;20028;-67
2021/04/03 10:19:15;;;;;;;20.52;14.30;;;231.00;2252.80;;;;;;5095276;28;20027;-67
2021/04/03 10:21:41;;;;;;;31.10;18.08;;;231.10;2252.80;;;;;;5095019;28;20020;-68
2021/04/03 10:24:08;;;;;;;17.60;12.40;;;230.80;2252.80;;;;;;5095413;28;20027;-69
2021/04/03 10:26:34;;;;;;;18.75;13.05;;;230.60;2252.80;;;;;;5095770;28;20031;-68
2021/04/03 10:29:00;;;;;;;19.95;12.98;;;230.60;2252.80;;;;;;5095511;28;20385;-68
2021/04/03 10:31:26;;;;;;;17.35;11.38;;;230.40;2252.80;;;;;;5095504;28;20039;-68
2021/04/03 10:33:52;;;;;;;16.95;10.48;;;205.70;2252.80;;;;;;5095537;28;20378;-68
2021/04/03 10:36:18;;;;;;;17.38;11.65;;;205.70;2252.80;;;;;;5094372;28;20087;-68
2021/04/03 10:38:45;;;;;;;16.75;10.38;;;205.70;2252.80;;;;;;5095190;28;20395;-68
2021/04/03 10:41:12;;;;;;;17.27;11.05;;;205.70;2252.80;;;;;;5091843;28;20342;-68
2021/04/03 10:43:39;;;;;;;17.52;10.80;;;230.40;2252.80;;;;;;5094417;28;20027;-67
2021/04/03 10:46:06;;;;;;;17.85;10.73;;;230.40;2252.80;;;;;;5094350;28;20038;-68
2021/04/03 10:48:35;;;;;;;19.08;10.82;;;230.50;2252.80;;;;;;5094139;28;20032;-67
2021/04/03 10:51:02;;;;;;;18.33;12.88;;;230.60;2252.80;;;;;;5091537;28;20032;-68
2021/04/03 10:53:28;;;;;;;15.52;11.25;;;230.60;2252.80;;;;;;5094181;28;20106;-68
2021/04/03 10:55:54;;;;;;;20.27;12.98;;;230.70;2252.80;;;;;;5094866;28;20115;-68
2021/04/03 10:58:20;;;;;;;16.58;11.55;;;230.80;2252.80;;;;;;5093626;28;20063;-68
2021/04/03 11:00:46;;;;;;;19.05;11.48;;;231.00;2252.80;;;;;;5094367;28;20394;-67
2021/04/03 11:03:12;;;;;;;17.25;11.60;;;231.00;2252.80;;;;;;5076147;28;20028;-68
2021/04/03 11:05:38;;;;;;;21.10;14.32;;;231.00;2252.80;;;;;;5093349;28;20476;-68
2021/04/03 11:08:04;;;;;;;16.13;10.90;;;231.00;2252.80;;;;;;5094447;28;20074;-67
2021/04/03 11:10:30;;;;;;;17.00;11.25;;;231.10;2252.80;;;;;;5094203;28;20338;-68
2021/04/03 11:12:56;;;;;;;17.08;10.90;;;231.30;2252.80;;;;;;5093857;28;20438;-70
2021/04/03 11:15:22;;;;;;;16.85;11.52;;;256.00;2252.80;;;;;;5094339;28;20462;-67
2021/04/03 11:17:51;;;;;;;20.35;11.52;;;231.30;2252.80;;;;;;5094578;28;20077;-70
2021/04/03 11:20:17;;;;;;;17.42;10.73;;;231.20;2252.80;;;;;;5095048;28;20031;-68
2021/04/03 11:22:43;;;;;;;22.80;12.07;;;231.10;2252.80;;;;;;5094115;28;20041;-68
2021/04/03 11:25:09;;;;;;;15.50;10.95;;;256.00;2252.80;;;;;;5094389;28;20086;-67
2021/04/03 11:27:35;;;;;;;17.60;11.05;;;256.40;2252.80;;;;;;5093705;28;20036;-67
2021/04/03 11:30:16;;;;;;;14.65;10.05;;;256.30;2252.80;;;;;;5093984;28;20435;-68
2021/04/03 11:32:43;;;;;;;15.43;10.43;;;256.10;2252.80;;;;;;5091621;28;20044;-68
2021/04/03 11:35:10;;;;;;;17.17;10.95;;;231.30;2252.80;;;;;;5093658;28;20040;-67
2021/04/03 11:37:36;;;;;;;15.73;10.45;;;231.00;2252.80;;;;;;5093065;28;20426;-69
2021/04/03 11:40:04;;;;;;;16.27;10.80;;;231.00;2252.80;;;;;;5093656;28;20111;-67
2021/04/03 11:42:30;;;;;;;20.67;12.18;;;231.00;2252.80;;;;;;5094527;28;20028;-67
2021/04/03 11:44:56;;;;;;;19.30;11.48;;;230.90;2252.80;;;;;;5095109;28;20024;-66
2021/04/03 11:47:23;;;;;;;17.95;12.57;;;230.80;2252.80;;;;;;5093785;28;20043;-68
2021/04/03 11:49:51;;;;;;;19.58;11.95;;;230.90;2252.80;;;;;;5094115;28;20090;-68
2021/04/03 11:52:17;;;;;;;21.55;13.55;;;230.90;2252.80;;;;;;5093907;28;20107;-67
2021/04/03 11:54:43;;;;;;;18.40;12.13;;;230.80;2252.80;;;;;;5092904;28;20736;-67
2021/04/03 11:57:09;;;;;;;20.58;13.20;;;231.00;2252.80;;;;;;5094102;28;20039;-68
2021/04/03 11:59:34;;;;;;;17.85;12.25;;;231.00;2252.80;;;;;;5094109;28;20107;-67
2021/04/03 12:02:00;;;;;;;22.58;13.50;;;231.20;2252.80;;;;;;5093735;28;20754;-69
2021/04/03 12:04:26;;;;;;;22.00;13.88;;;231.30;2252.80;;;;;;5096767;28;20020;-66
2021/04/03 12:06:52;;;;;;;20.27;13.10;;;231.10;2252.80;;;;;;5097693;28;20032;-68
2021/04/03 12:09:18;;;;;;;24.52;12.60;;;231.20;2252.80;;;;;;5097457;28;20023;-68